Time,TemperatureF,DewpointF,PressureIn,WindDirection,WindDirectionDegrees,WindSpeedMPH,WindSpeedGustMPH,Humidity,HourlyPrecipIn,Conditions,Clouds,dailyrainin,SoftwareType,DateUTC
2013-01-23 00:00:00,41.2,39.3,30.26,West,263,0.0,1.0,93,0.00,,---,0.00,VWS V14.01,2013-01-23 06:00:00,
2013-01-23 00:04:00,40.9,39.0,30.26,West,263,0.0,0.0,93,0.00,,---,0.00,VWS V14.01,2013-01-23 06:04:00,
2013-01-23 00:09:00,40.8,38.9,30.26,West,263,0.0,0.0,93,0.00,,---,0.00,VWS V14.01,2013-01-23 06:09:00,
2013-01-23 00:14:00,40.8,38.9,30.26,West,263,0.0,0.0,93,0.00,,---,0.00,VWS V14.01,2013-01-23 06:14:00,
2013-01-23 00:15:00,40.8,38.9,30.26,West,263,0.0,0.0,93,0.00,,---,0.00,VWS V14.01,2013-01-23 06:15:00,
2013-01-23 00:19:00,40.8,38.9,30.26,West,263,0.0,0.0,93,0.00,,---,0.00,VWS V14.01,2013-01-23 06:19:00,
2013-01-23 00:24:00,40.8,38.9,30.26,West,263,0.0,0.0,93,0.00,,---,0.00,VWS V14.01,2013-01-23 06:24:00,
2013-01-23 00:29:00,40.6,38.7,30.26,West,263,0.0,0.0,93,0.00,,---,0.00,VWS V14.01,2013-01-23 06:29:00,
2013-01-23 00:30:00,40.6,38.7,30.26,West,263,0.0,0.0,93,0.00,,---,0.00,VWS V14.01,2013-01-23 06:30:00,
2013-01-23 00:34:00,40.5,38.6,30.26,West,263,0.0,0.0,93,0.00,,---,0.00,VWS V14.01,2013-01-23 06:34:00,
2013-01-23 00:39:00,40.5,38.9,30.26,West,263,0.0,0.0,94,0.00,,---,0.00,VWS V14.01,2013-01-23 06:39:00,
2013-01-23 00:44:00,40.3,38.7,30.26,West,263,0.0,0.0,94,0.00,,---,0.00,VWS V14.01,2013-01-23 06:44:00,
2013-01-23 00:45:00,40.3,38.7,30.26,West,263,0.0,0.0,94,0.00,,---,0.00,VWS V14.01,2013-01-23 06:45:00,
2013-01-23 00:49:00,40.3,38.7,30.26,West,263,0.0,0.0,94,0.00,,---,0.00,VWS V14.01,2013-01-23 06:49:00,
2013-01-23 00:54:00,40.3,38.7,30.26,West,263,0.0,0.0,94,0.00,,---,0.00,VWS V14.01,2013-01-23 06:54:00,
2013-01-23 01:00:00,40.2,38.6,30.26,West,263,0.0,0.0,94,0.00,,---,0.00,VWS V14.01,2013-01-23 07:00:00,
2013-01-23 01:05:00,40.1,38.5,30.26,West,263,0.0,0.0,94,0.00,,---,0.00,VWS V14.01,2013-01-23 07:05:00,
2013-01-23 01:10:00,40.1,38.5,30.26,West,263,0.0,0.0,94,0.00,,---,0.00,VWS V14.01,2013-01-23 07:10:00,
2013-01-23 01:15:00,40.1,38.5,30.26,West,263,0.0,0.0,94,0.00,,---,0.00,VWS V14.01,2013-01-23 07:15:00,
2013-01-23 01:20:00,40.1,38.5,30.26,West,263,0.0,0.0,94,0.00,,---,0.00,VWS V14.01,2013-01-23 07:20:00,
2013-01-23 01:25:00,40.1,38.5,30.26,West,263,0.0,0.0,94,0.00,,---,0.00,VWS V14.01,2013-01-23 07:25:00,
2013-01-23 01:30:00,40.1,38.5,30.26,West,263,0.0,0.0,94,0.00,,---,0.00,VWS V14.01,2013-01-23 07:30:00,
2013-01-23 01:35:00,39.8,38.2,30.26,West,263,0.0,0.0,94,0.00,,---,0.00,VWS V14.01,2013-01-23 07:35:00,
2013-01-23 01:40:00,39.8,38.2,30.26,West,263,0.0,0.0,94,0.00,,---,0.00,VWS V14.01,2013-01-23 07:40:00,
2013-01-23 01:45:00,39.6,38.0,30.26,West,263,0.0,0.0,94,0.00,,---,0.00,VWS V14.01,2013-01-23 07:45:00,
2013-01-23 01:50:00,39.5,37.9,30.26,West,263,0.0,0.0,94,0.00,,---,0.00,VWS V14.01,2013-01-23 07:50:00,
2013-01-23 01:56:00,39.5,38.2,30.26,West,263,0.0,0.0,95,0.00,,---,0.00,VWS V14.01,2013-01-23 07:56:00,
2013-01-23 02:00:00,39.5,38.2,30.26,West,263,0.0,0.0,95,0.00,,---,0.00,VWS V14.01,2013-01-23 08:00:00,
2013-01-23 02:01:00,39.5,38.2,30.26,West,263,0.0,0.0,95,0.00,,---,0.00,VWS V14.01,2013-01-23 08:01:00,
2013-01-23 02:06:00,39.5,38.2,30.26,West,263,0.0,0.0,95,0.00,,---,0.00,VWS V14.01,2013-01-23 08:06:00,
2013-01-23 02:11:00,39.5,37.9,30.26,West,263,0.0,0.0,94,0.00,,---,0.00,VWS V14.01,2013-01-23 08:11:00,
2013-01-23 02:15:00,39.3,38.0,30.27,West,263,0.0,0.0,95,0.00,,---,0.00,VWS V14.01,2013-01-23 08:15:00,
2013-01-23 02:16:00,39.3,38.0,30.27,West,263,0.0,0.0,95,0.00,,---,0.00,VWS V14.01,2013-01-23 08:16:00,
2013-01-23 02:21:00,39.3,38.0,30.27,West,263,0.0,0.0,95,0.00,,---,0.00,VWS V14.01,2013-01-23 08:21:00,
2013-01-23 02:26:00,39.3,38.0,30.27,West,263,0.0,0.0,95,0.00,,---,0.00,VWS V14.01,2013-01-23 08:26:00,
2013-01-23 02:30:00,39.3,38.0,30.27,West,263,0.0,0.0,95,0.00,,---,0.00,VWS V14.01,2013-01-23 08:30:00,
2013-01-23 02:31:00,39.3,38.0,30.27,West,263,0.0,0.0,95,0.00,,---,0.00,VWS V14.01,2013-01-23 08:31:00,
2013-01-23 02:37:00,39.2,37.9,30.27,West,263,0.0,0.0,95,0.00,,---,0.00,VWS V14.01,2013-01-23 08:37:00,
2013-01-23 02:42:00,39.2,37.9,30.27,West,263,0.0,0.0,95,0.00,,---,0.00,VWS V14.01,2013-01-23 08:42:00,
2013-01-23 02:45:00,39.2,37.9,30.27,West,263,0.0,0.0,95,0.00,,---,0.00,VWS V14.01,2013-01-23 08:45:00,
2013-01-23 02:47:00,39.1,37.8,30.27,West,263,0.0,0.0,95,0.00,,---,0.00,VWS V14.01,2013-01-23 08:47:00,
2013-01-23 02:52:00,39.1,37.8,30.27,West,263,0.0,0.0,95,0.00,,---,0.00,VWS V14.01,2013-01-23 08:52:00,
2013-01-23 02:57:00,39.1,37.8,30.27,West,263,0.0,0.0,95,0.00,,---,0.00,VWS V14.01,2013-01-23 08:57:00,
2013-01-23 03:00:00,39.1,37.8,30.26,West,263,0.0,0.0,95,0.00,,---,0.00,VWS V14.01,2013-01-23 09:00:00,
2013-01-23 03:02:00,39.1,37.8,30.26,West,263,0.0,0.0,95,0.00,,---,0.00,VWS V14.01,2013-01-23 09:02:00,
2013-01-23 03:07:00,38.9,37.6,30.26,West,263,0.0,0.0,95,0.00,,---,0.00,VWS V14.01,2013-01-23 09:07:00,
2013-01-23 03:12:00,38.9,37.6,30.26,West,263,0.0,0.0,95,0.00,,---,0.00,VWS V14.01,2013-01-23 09:12:00,
2013-01-23 03:15:00,38.9,37.6,30.26,West,263,0.0,0.0,95,0.00,,---,0.00,VWS V14.01,2013-01-23 09:15:00,
2013-01-23 03:17:00,38.8,37.5,30.26,West,263,0.0,0.0,95,0.00,,---,0.00,VWS V14.01,2013-01-23 09:17:00,
2013-01-23 03:22:00,38.8,37.5,30.26,West,263,0.0,0.0,95,0.00,,---,0.00,VWS V14.01,2013-01-23 09:22:00,
2013-01-23 03:27:00,38.6,37.3,30.26,West,263,0.0,0.0,95,0.00,,---,0.00,VWS V14.01,2013-01-23 09:27:00,
2013-01-23 03:30:00,38.5,37.2,30.26,West,263,0.0,0.0,95,0.00,,---,0.00,VWS V14.01,2013-01-23 09:30:00,
2013-01-23 03:32:00,38.5,37.2,30.26,West,263,0.0,0.0,95,0.00,,---,0.00,VWS V14.01,2013-01-23 09:32:00,
2013-01-23 03:37:00,38.3,37.0,30.26,West,263,0.0,0.0,95,0.00,,---,0.00,VWS V14.01,2013-01-23 09:37:00,
2013-01-23 03:43:00,38.2,36.9,30.26,West,263,0.0,0.0,95,0.00,,---,0.00,VWS V14.01,2013-01-23 09:43:00,
2013-01-23 03:45:00,38.2,36.9,30.26,West,263,0.0,0.0,95,0.00,,---,0.00,VWS V14.01,2013-01-23 09:45:00,
2013-01-23 03:48:00,38.2,36.9,30.26,West,263,0.0,0.0,95,0.00,,---,0.00,VWS V14.01,2013-01-23 09:48:00,
2013-01-23 03:53:00,38.3,37.0,30.26,West,263,0.0,0.0,95,0.00,,---,0.00,VWS V14.01,2013-01-23 09:53:00,
2013-01-23 03:58:00,38.5,37.5,30.26,West,263,0.0,0.0,96,0.00,,---,0.00,VWS V14.01,2013-01-23 09:58:00,
2013-01-23 04:00:00,38.5,37.5,30.26,West,263,0.0,0.0,96,0.00,,---,0.00,VWS V14.01,2013-01-23 10:00:00,
2013-01-23 04:03:00,38.3,37.0,30.26,West,263,0.0,0.0,95,0.00,,---,0.00,VWS V14.01,2013-01-23 10:03:00,
2013-01-23 04:08:00,38.3,37.0,30.26,West,263,0.0,0.0,95,0.00,,---,0.00,VWS V14.01,2013-01-23 10:08:00,
2013-01-23 04:13:00,38.2,36.9,30.26,West,263,0.0,0.0,95,0.00,,---,0.00,VWS V14.01,2013-01-23 10:13:00,
2013-01-23 04:15:00,38.2,36.9,30.26,West,263,0.0,0.0,95,0.00,,---,0.00,VWS V14.01,2013-01-23 10:15:00,
2013-01-23 04:18:00,38.2,36.9,30.26,West,263,0.0,0.0,95,0.00,,---,0.00,VWS V14.01,2013-01-23 10:18:00,
2013-01-23 04:23:00,38.0,36.7,30.26,West,263,0.0,0.0,95,0.00,,---,0.00,VWS V14.01,2013-01-23 10:23:00,
2013-01-23 04:28:00,38.0,36.7,30.26,West,263,0.0,0.0,95,0.00,,---,0.00,VWS V14.01,2013-01-23 10:28:00,
2013-01-23 04:30:00,38.0,36.7,30.26,West,263,0.0,0.0,95,0.00,,---,0.00,VWS V14.01,2013-01-23 10:30:00,
2013-01-23 04:33:00,37.9,36.6,30.26,West,263,0.0,0.0,95,0.00,,---,0.00,VWS V14.01,2013-01-23 10:33:00,
2013-01-23 04:38:00,37.8,36.5,30.26,West,263,0.0,0.0,95,0.00,,---,0.00,VWS V14.01,2013-01-23 10:38:00,
2013-01-23 04:43:00,37.8,36.5,30.26,West,263,0.0,0.0,95,0.00,,---,0.00,VWS V14.01,2013-01-23 10:43:00,
2013-01-23 04:45:00,37.8,36.5,30.26,West,263,0.0,0.0,95,0.00,,---,0.00,VWS V14.01,2013-01-23 10:45:00,
2013-01-23 04:48:00,37.6,36.6,30.26,West,263,0.0,0.0,96,0.00,,---,0.00,VWS V14.01,2013-01-23 10:48:00,
2013-01-23 04:54:00,37.6,36.6,30.26,West,263,0.0,0.0,96,0.00,,---,0.00,VWS V14.01,2013-01-23 10:54:00,
2013-01-23 04:59:00,37.6,36.6,30.26,West,263,0.0,0.0,96,0.00,,---,0.00,VWS V14.01,2013-01-23 10:59:00,
2013-01-23 05:00:00,37.6,36.6,30.26,West,263,0.0,0.0,96,0.00,,---,0.00,VWS V14.01,2013-01-23 11:00:00,
2013-01-23 05:04:00,37.6,36.6,30.26,West,263,0.0,0.0,96,0.00,,---,0.00,VWS V14.01,2013-01-23 11:04:00,
2013-01-23 05:09:00,37.6,36.6,30.26,West,263,0.0,0.0,96,0.00,,---,0.00,VWS V14.01,2013-01-23 11:09:00,
2013-01-23 05:14:00,37.6,36.6,30.27,West,263,0.0,0.0,96,0.00,,---,0.00,VWS V14.01,2013-01-23 11:14:00,
2013-01-23 05:15:00,37.6,36.6,30.27,West,263,0.0,0.0,96,0.00,,---,0.00,VWS V14.01,2013-01-23 11:15:00,
2013-01-23 05:19:00,37.6,36.6,30.27,West,263,0.0,0.0,96,0.00,,---,0.00,VWS V14.01,2013-01-23 11:19:00,
2013-01-23 05:24:00,37.6,36.6,30.27,West,263,0.0,0.0,96,0.00,,---,0.00,VWS V14.01,2013-01-23 11:24:00,
2013-01-23 05:29:00,37.5,36.5,30.27,West,263,0.0,0.0,96,0.00,,---,0.00,VWS V14.01,2013-01-23 11:29:00,
2013-01-23 05:30:00,37.5,36.5,30.27,West,263,0.0,0.0,96,0.00,,---,0.00,VWS V14.01,2013-01-23 11:30:00,
2013-01-23 05:34:00,37.5,36.5,30.27,West,263,0.0,0.0,96,0.00,,---,0.00,VWS V14.01,2013-01-23 11:34:00,
2013-01-23 05:39:00,37.3,36.3,30.27,West,263,0.0,0.0,96,0.00,,---,0.00,VWS V14.01,2013-01-23 11:39:00,
2013-01-23 05:44:00,37.2,36.2,30.28,West,263,0.0,0.0,96,0.00,,---,0.00,VWS V14.01,2013-01-23 11:44:00,
2013-01-23 05:45:00,37.2,36.2,30.28,West,263,0.0,0.0,96,0.00,,---,0.00,VWS V14.01,2013-01-23 11:45:00,
2013-01-23 05:49:00,37.2,36.2,30.28,West,263,0.0,0.0,96,0.00,,---,0.00,VWS V14.01,2013-01-23 11:49:00,
2013-01-23 05:54:00,37.2,36.2,30.28,West,263,0.0,0.0,96,0.00,,---,0.00,VWS V14.01,2013-01-23 11:54:00,
2013-01-23 06:00:00,37.0,36.0,30.28,West,263,0.0,0.0,96,0.00,,---,0.00,VWS V14.01,2013-01-23 12:00:00,
2013-01-23 06:05:00,37.0,36.0,30.28,West,263,0.0,0.0,96,0.00,,---,0.00,VWS V14.01,2013-01-23 12:05:00,
2013-01-23 06:10:00,36.9,35.9,30.28,West,263,0.0,0.0,96,0.00,,---,0.00,VWS V14.01,2013-01-23 12:10:00,
2013-01-23 06:15:00,37.0,36.0,30.29,West,263,0.0,0.0,96,0.00,,---,0.00,VWS V14.01,2013-01-23 12:15:00,
2013-01-23 06:20:00,37.2,36.2,30.29,West,263,0.0,0.0,96,0.00,,---,0.00,VWS V14.01,2013-01-23 12:20:00,
2013-01-23 06:25:00,37.3,36.3,30.29,West,263,0.0,0.0,96,0.00,,---,0.00,VWS V14.01,2013-01-23 12:25:00,
2013-01-23 06:30:00,37.6,36.6,30.29,West,263,0.0,0.0,96,0.00,,---,0.00,VWS V14.01,2013-01-23 12:30:00,
2013-01-23 06:35:00,37.9,36.9,30.29,West,263,0.0,0.0,96,0.00,,---,0.00,VWS V14.01,2013-01-23 12:35:00,
2013-01-23 06:40:00,37.9,36.9,30.29,West,263,0.0,0.0,96,0.00,,---,0.00,VWS V14.01,2013-01-23 12:40:00,
2013-01-23 06:45:00,38.0,37.0,30.29,West,263,0.0,0.0,96,0.00,,---,0.00,VWS V14.01,2013-01-23 12:45:00,
2013-01-23 06:50:00,38.2,37.2,30.29,West,263,0.0,0.0,96,0.00,,---,0.00,VWS V14.01,2013-01-23 12:50:00,
2013-01-23 06:55:00,38.3,37.3,30.29,West,263,0.0,1.0,96,0.00,,---,0.00,VWS V14.01,2013-01-23 12:55:00,
2013-01-23 07:00:00,38.5,37.5,30.30,West,263,0.0,0.0,96,0.00,,---,0.00,VWS V14.01,2013-01-23 13:00:00,
2013-01-23 07:05:00,38.5,37.5,30.30,West,263,0.0,0.0,96,0.00,,---,0.00,VWS V14.01,2013-01-23 13:05:00,
2013-01-23 07:10:00,38.6,37.6,30.30,West,263,0.0,0.0,96,0.00,,---,0.00,VWS V14.01,2013-01-23 13:10:00,
2013-01-23 07:15:00,38.8,37.8,30.30,West,263,0.0,0.0,96,0.00,,---,0.00,VWS V14.01,2013-01-23 13:15:00,
2013-01-23 07:16:00,38.9,37.9,30.30,West,263,0.0,0.0,96,0.00,,---,0.00,VWS V14.01,2013-01-23 13:16:00,
2013-01-23 07:21:00,39.1,38.3,30.30,West,263,0.0,0.0,97,0.00,,---,0.00,VWS V14.01,2013-01-23 13:21:00,
2013-01-23 07:26:00,39.3,38.5,30.30,West,263,0.0,0.0,97,0.00,,---,0.00,VWS V14.01,2013-01-23 13:26:00,
2013-01-23 07:30:00,39.6,38.8,30.31,West,263,0.0,2.0,97,0.00,,---,0.00,VWS V14.01,2013-01-23 13:30:00,
2013-01-23 07:31:00,39.8,39.0,30.31,West,263,1.0,2.0,97,0.00,,---,0.00,VWS V14.01,2013-01-23 13:31:00,
2013-01-23 07:36:00,39.9,39.1,30.31,West,263,0.0,2.0,97,0.00,,---,0.00,VWS V14.01,2013-01-23 13:36:00,
2013-01-23 07:41:00,40.2,39.4,30.31,West,263,0.0,2.0,97,0.00,,---,0.00,VWS V14.01,2013-01-23 13:41:00,
2013-01-23 07:45:00,40.5,39.7,30.31,West,263,0.0,2.0,97,0.00,,---,0.00,VWS V14.01,2013-01-23 13:45:00,
2013-01-23 07:46:00,40.5,39.7,30.31,West,263,0.0,0.0,97,0.00,,---,0.00,VWS V14.01,2013-01-23 13:46:00,
2013-01-23 07:51:00,40.8,40.0,30.31,West,263,0.0,0.0,97,0.00,,---,0.00,VWS V14.01,2013-01-23 13:51:00,
2013-01-23 07:56:00,41.2,40.4,30.31,West,263,0.0,0.0,97,0.00,,---,0.00,VWS V14.01,2013-01-23 13:56:00,
2013-01-23 08:00:00,41.3,40.5,30.31,West,263,0.0,0.0,97,0.00,,---,0.00,VWS V14.01,2013-01-23 14:00:00,
2013-01-23 08:01:00,41.5,40.7,30.31,West,263,0.0,0.0,97,0.00,,---,0.00,VWS V14.01,2013-01-23 14:01:00,
2013-01-23 08:06:00,41.9,41.1,30.31,West,263,0.0,0.0,97,0.00,,---,0.00,VWS V14.01,2013-01-23 14:06:00,
2013-01-23 08:11:00,42.3,41.5,30.31,West,263,0.0,0.0,97,0.00,,---,0.00,VWS V14.01,2013-01-23 14:11:00,
2013-01-23 08:15:00,42.5,41.7,30.31,West,263,0.0,0.0,97,0.00,,---,0.00,VWS V14.01,2013-01-23 14:15:00,
2013-01-23 08:16:00,42.6,41.8,30.31,West,263,0.0,0.0,97,0.00,,---,0.00,VWS V14.01,2013-01-23 14:16:00,
2013-01-23 08:22:00,43.1,42.3,30.31,West,263,0.0,0.0,97,0.00,,---,0.00,VWS V14.01,2013-01-23 14:22:00,
2013-01-23 08:27:00,43.5,42.7,30.31,West,263,0.0,0.0,97,0.00,,---,0.00,VWS V14.01,2013-01-23 14:27:00,
2013-01-23 08:30:00,43.6,42.8,30.31,West,263,0.0,0.0,97,0.00,,---,0.00,VWS V14.01,2013-01-23 14:30:00,
2013-01-23 08:32:00,43.9,43.1,30.31,West,263,0.0,0.0,97,0.00,,---,0.00,VWS V14.01,2013-01-23 14:32:00,
2013-01-23 08:37:00,44.5,43.7,30.31,West,263,0.0,0.0,97,0.00,,---,0.00,VWS V14.01,2013-01-23 14:37:00,
2013-01-23 08:42:00,45.2,44.7,30.31,West,263,0.0,0.0,98,0.00,,---,0.00,VWS V14.01,2013-01-23 14:42:00,
2013-01-23 08:45:00,45.5,45.0,30.32,West,263,0.0,0.0,98,0.00,,---,0.00,VWS V14.01,2013-01-23 14:45:00,
2013-01-23 08:47:00,46.0,45.5,30.32,West,263,0.0,0.0,98,0.00,,---,0.00,VWS V14.01,2013-01-23 14:47:00,
2013-01-23 08:52:00,46.7,46.2,30.32,West,263,0.0,0.0,98,0.00,,---,0.00,VWS V14.01,2013-01-23 14:52:00,
2013-01-23 08:57:00,47.7,47.2,30.32,West,263,0.0,0.0,98,0.00,,---,0.00,VWS V14.01,2013-01-23 14:57:00,
2013-01-23 09:00:00,48.2,47.7,30.32,West,263,2.0,3.0,98,0.00,,---,0.00,VWS V14.01,2013-01-23 15:00:00,
2013-01-23 09:02:00,48.6,48.1,30.32,West,263,0.0,2.0,98,0.00,,---,0.00,VWS V14.01,2013-01-23 15:02:00,
2013-01-23 09:07:00,49.4,48.9,30.32,West,263,0.0,2.0,98,0.00,,---,0.00,VWS V14.01,2013-01-23 15:07:00,
2013-01-23 09:12:00,49.9,49.4,30.32,West,263,0.0,3.0,98,0.00,,---,0.00,VWS V14.01,2013-01-23 15:12:00,
2013-01-23 09:15:00,50.2,49.4,30.33,West,263,1.0,3.0,97,0.00,,---,0.00,VWS V14.01,2013-01-23 15:15:00,
2013-01-23 09:18:00,50.7,49.9,30.33,West,263,0.0,1.0,97,0.00,,---,0.00,VWS V14.01,2013-01-23 15:18:00,
2013-01-23 09:23:00,51.4,50.6,30.33,West,263,0.0,1.0,97,0.00,,---,0.00,VWS V14.01,2013-01-23 15:23:00,
2013-01-23 09:28:00,52.3,51.2,30.33,West,263,0.0,1.0,96,0.00,,---,0.00,VWS V14.01,2013-01-23 15:28:00,
2013-01-23 09:30:00,52.6,51.5,30.33,West,263,0.0,1.0,96,0.00,,---,0.00,VWS V14.01,2013-01-23 15:30:00,
2013-01-23 09:33:00,53.1,52.0,30.33,West,263,0.0,1.0,96,0.00,,---,0.00,VWS V14.01,2013-01-23 15:33:00,
2013-01-23 09:38:00,53.9,52.2,30.33,SW,222,4.0,6.0,94,0.00,,---,0.00,VWS V14.01,2013-01-23 15:38:00,
2013-01-23 09:43:00,54.5,52.2,30.33,SSW,205,3.0,7.0,92,0.00,,---,0.00,VWS V14.01,2013-01-23 15:43:00,
2013-01-23 09:45:00,54.7,52.1,30.33,SSW,211,4.0,7.0,91,0.00,,---,0.00,VWS V14.01,2013-01-23 15:45:00,
2013-01-23 09:48:00,55.6,52.1,30.33,SSW,200,3.0,5.0,88,0.00,,---,0.00,VWS V14.01,2013-01-23 15:48:00,
2013-01-23 09:53:00,56.3,51.2,30.33,SSW,193,0.0,7.0,83,0.00,,---,0.00,VWS V14.01,2013-01-23 15:53:00,
2013-01-23 09:58:00,57.2,51.1,30.32,SSW,195,0.0,7.0,80,0.00,,---,0.00,VWS V14.01,2013-01-23 15:58:00,
2013-01-23 10:00:00,57.3,51.2,30.32,SSW,196,0.0,7.0,80,0.00,,---,0.00,VWS V14.01,2013-01-23 16:00:00,
2013-01-23 10:04:00,57.8,51.0,30.32,WSW,243,0.0,4.0,78,0.00,,---,0.00,VWS V14.01,2013-01-23 16:04:00,
2013-01-23 10:09:00,58.6,50.3,30.32,SSW,206,2.0,6.0,74,0.00,,---,0.00,VWS V14.01,2013-01-23 16:09:00,
2013-01-23 10:14:00,59.2,49.8,30.32,SW,225,0.0,6.0,71,0.00,,---,0.00,VWS V14.01,2013-01-23 16:14:00,
2013-01-23 10:15:00,59.3,49.5,30.32,SW,219,0.0,6.0,70,0.00,,---,0.00,VWS V14.01,2013-01-23 16:15:00,
2013-01-23 10:19:00,59.8,48.8,30.32,SSW,198,4.0,5.0,67,0.00,,---,0.00,VWS V14.01,2013-01-23 16:19:00,
2013-01-23 10:24:00,60.9,47.8,30.32,South,175,3.0,6.0,62,0.00,,---,0.00,VWS V14.01,2013-01-23 16:24:00,
2013-01-23 10:29:00,61.6,47.2,30.33,SW,223,0.0,6.0,59,0.00,,---,0.00,VWS V14.01,2013-01-23 16:29:00,
2013-01-23 10:30:00,61.6,47.2,30.33,SW,224,0.0,6.0,59,0.00,,---,0.00,VWS V14.01,2013-01-23 16:30:00,
2013-01-23 10:34:00,62.1,47.2,30.33,SSW,202,3.0,5.0,58,0.00,,---,0.00,VWS V14.01,2013-01-23 16:34:00,
2013-01-23 10:39:00,62.6,47.6,30.33,SSW,198,0.0,5.0,58,0.00,,---,0.00,VWS V14.01,2013-01-23 16:39:00,
2013-01-23 10:44:00,62.9,47.0,30.32,West,266,0.0,5.0,56,0.00,,---,0.00,VWS V14.01,2013-01-23 16:44:00,
2013-01-23 10:45:00,62.9,47.0,30.32,West,266,0.0,5.0,56,0.00,,---,0.00,VWS V14.01,2013-01-23 16:45:00,
2013-01-23 10:49:00,63.5,46.1,30.32,SW,229,3.0,6.0,53,0.00,,---,0.00,VWS V14.01,2013-01-23 16:49:00,
2013-01-23 10:54:00,63.7,46.3,30.32,WNW,300,0.0,9.0,53,0.00,,---,0.00,VWS V14.01,2013-01-23 16:54:00,
2013-01-23 10:59:00,64.2,46.2,30.31,WNW,282,2.0,4.0,52,0.00,,---,0.00,VWS V14.01,2013-01-23 16:59:00,
2013-01-23 11:00:00,64.2,46.7,30.31,WNW,282,4.0,10.0,53,0.00,,---,0.00,VWS V14.01,2013-01-23 17:00:00,
2013-01-23 11:04:00,64.8,46.8,30.31,West,271,2.0,7.0,52,0.00,,---,0.00,VWS V14.01,2013-01-23 17:04:00,
2013-01-23 11:10:00,65.2,46.1,30.31,SW,221,5.0,10.0,50,0.00,,---,0.00,VWS V14.01,2013-01-23 17:10:00,
2013-01-23 11:15:00,65.3,44.6,30.31,SW,234,0.0,3.0,47,0.00,,---,0.00,VWS V14.01,2013-01-23 17:15:00,
2013-01-23 11:20:00,65.5,44.2,30.31,West,269,11.0,14.0,46,0.00,,---,0.00,VWS V14.01,2013-01-23 17:20:00,
2013-01-23 11:25:00,65.3,44.0,30.31,SSW,213,5.0,15.0,46,0.00,,---,0.00,VWS V14.01,2013-01-23 17:25:00,
2013-01-23 11:30:00,65.6,44.3,30.30,WSW,241,7.0,7.0,46,0.00,,---,0.00,VWS V14.01,2013-01-23 17:30:00,
2013-01-23 11:35:00,66.3,44.3,30.30,SSW,211,4.0,10.0,45,0.00,,---,0.00,VWS V14.01,2013-01-23 17:35:00,
2013-01-23 11:40:00,66.9,44.3,30.30,SW,224,0.0,10.0,44,0.00,,---,0.00,VWS V14.01,2013-01-23 17:40:00,
2013-01-23 11:45:00,67.3,44.7,30.29,WNW,301,0.0,5.0,44,0.00,,---,0.00,VWS V14.01,2013-01-23 17:45:00,
2013-01-23 11:50:00,67.3,44.1,30.29,WSW,254,6.0,12.0,43,0.00,,---,0.00,VWS V14.01,2013-01-23 17:50:00,
2013-01-23 11:55:00,67.1,44.5,30.29,South,184,9.0,13.0,44,0.00,,---,0.00,VWS V14.01,2013-01-23 17:55:00,
2013-01-23 12:00:00,66.9,43.7,30.28,SW,235,9.0,9.0,43,0.00,,---,0.00,VWS V14.01,2013-01-23 18:00:00,
2013-01-23 12:05:00,67.1,43.9,30.28,SSW,195,10.0,13.0,43,0.00,,---,0.00,VWS V14.01,2013-01-23 18:05:00,
2013-01-23 12:10:00,67.1,44.5,30.28,WSW,254,1.0,13.0,44,0.00,,---,0.00,VWS V14.01,2013-01-23 18:10:00,
2013-01-23 12:15:00,67.4,44.8,30.28,West,263,0.0,13.0,44,0.00,,---,0.00,VWS V14.01,2013-01-23 18:15:00,
2013-01-23 12:16:00,67.6,44.3,30.28,SW,221,5.0,9.0,43,0.00,,---,0.00,VWS V14.01,2013-01-23 18:16:00,
2013-01-23 12:21:00,67.6,45.5,30.28,SSW,201,6.0,9.0,45,0.00,,---,0.00,VWS V14.01,2013-01-23 18:21:00,
2013-01-23 12:26:00,67.8,45.7,30.28,SSW,211,8.0,9.0,45,0.00,,---,0.00,VWS V14.01,2013-01-23 18:26:00,
2013-01-23 12:30:00,68.1,45.4,30.26,WSW,243,0.0,11.0,44,0.00,,---,0.00,VWS V14.01,2013-01-23 18:30:00,
2013-01-23 12:31:00,68.1,45.4,30.26,SSW,205,4.0,6.0,44,0.00,,---,0.00,VWS V14.01,2013-01-23 18:31:00,
2013-01-23 12:36:00,68.4,45.7,30.26,SW,231,3.0,6.0,44,0.00,,---,0.00,VWS V14.01,2013-01-23 18:36:00,
2013-01-23 12:41:00,68.4,45.0,30.26,SSW,201,4.0,7.0,43,0.00,,---,0.00,VWS V14.01,2013-01-23 18:41:00,
2013-01-23 12:45:00,68.3,45.0,30.26,West,274,4.0,13.0,43,0.00,,---,0.00,VWS V14.01,2013-01-23 18:45:00,
2013-01-23 12:46:00,68.3,45.0,30.26,SW,230,3.0,5.0,43,0.00,,---,0.00,VWS V14.01,2013-01-23 18:46:00,
2013-01-23 12:51:00,68.1,44.2,30.26,SSW,196,0.0,9.0,42,0.00,,---,0.00,VWS V14.01,2013-01-23 18:51:00,
2013-01-23 12:56:00,68.4,45.7,30.26,SSW,202,0.0,9.0,44,0.00,,---,0.00,VWS V14.01,2013-01-23 18:56:00,
2013-01-23 13:00:00,68.8,44.8,30.25,SSW,204,7.0,11.0,42,0.00,,---,0.00,VWS V14.01,2013-01-23 19:00:00,
2013-01-23 13:01:00,68.8,46.0,30.25,SSW,198,0.0,7.0,44,0.00,,---,0.00,VWS V14.01,2013-01-23 19:01:00,
2013-01-23 13:06:00,68.9,44.2,30.25,West,267,7.0,12.0,41,0.00,,---,0.00,VWS V14.01,2013-01-23 19:06:00,
2013-01-23 13:11:00,68.9,45.5,30.25,WSW,240,7.0,12.0,43,0.00,,---,0.00,VWS V14.01,2013-01-23 19:11:00,
2013-01-23 13:15:00,69.1,43.8,30.25,WNW,299,3.0,12.0,40,0.00,,---,0.00,VWS V14.01,2013-01-23 19:15:00,
2013-01-23 13:16:00,69.3,44.6,30.25,West,270,0.0,4.0,41,0.00,,---,0.00,VWS V14.01,2013-01-23 19:16:00,
2013-01-23 13:21:00,69.8,45.1,30.25,WSW,248,3.0,10.0,41,0.00,,---,0.00,VWS V14.01,2013-01-23 19:21:00,
2013-01-23 13:26:00,69.4,42.7,30.25,SW,229,0.0,10.0,38,0.00,,---,0.00,VWS V14.01,2013-01-23 19:26:00,
2013-01-23 13:30:00,69.4,43.4,30.25,West,275,0.0,10.0,39,0.00,,---,0.00,VWS V14.01,2013-01-23 19:30:00,
2013-01-23 13:31:00,69.6,43.6,30.25,SW,223,0.0,8.0,39,0.00,,---,0.00,VWS V14.01,2013-01-23 19:31:00,
2013-01-23 13:36:00,70.1,45.3,30.25,WSW,246,1.0,8.0,41,0.00,,---,0.00,VWS V14.01,2013-01-23 19:36:00,
2013-01-23 13:41:00,70.1,45.3,30.25,NW,311,0.0,11.0,41,0.00,,---,0.00,VWS V14.01,2013-01-23 19:41:00,
2013-01-23 13:45:00,70.4,43.6,30.24,WNW,286,6.0,11.0,38,0.00,,---,0.00,VWS V14.01,2013-01-23 19:45:00,
2013-01-23 13:46:00,70.4,43.6,30.24,WNW,285,10.0,12.0,38,0.00,,---,0.00,VWS V14.01,2013-01-23 19:46:00,
2013-01-23 13:51:00,69.8,43.1,30.24,SSW,203,5.0,14.0,38,0.00,,---,0.00,VWS V14.01,2013-01-23 19:51:00,
2013-01-23 13:57:00,69.9,42.5,30.24,West,271,11.0,14.0,37,0.00,,---,0.00,VWS V14.01,2013-01-23 19:57:00,
2013-01-23 14:00:00,69.6,42.2,30.23,West,274,0.0,14.0,37,0.00,,---,0.00,VWS V14.01,2013-01-23 20:00:00,
2013-01-23 14:02:00,69.8,41.7,30.23,WSW,258,7.0,11.0,36,0.00,,---,0.00,VWS V14.01,2013-01-23 20:02:00,
2013-01-23 14:07:00,69.9,42.5,30.23,WSW,250,5.0,14.0,37,0.00,,---,0.00,VWS V14.01,2013-01-23 20:07:00,
2013-01-23 14:12:00,69.8,40.2,30.23,West,279,6.0,14.0,34,0.00,,---,0.00,VWS V14.01,2013-01-23 20:12:00,
2013-01-23 14:15:00,69.9,42.5,30.23,West,261,5.0,14.0,37,0.00,,---,0.00,VWS V14.01,2013-01-23 20:15:00,
2013-01-23 14:17:00,70.1,44.0,30.23,West,259,9.0,14.0,39,0.00,,---,0.00,VWS V14.01,2013-01-23 20:17:00,
2013-01-23 14:22:00,70.4,41.5,30.23,WSW,248,5.0,14.0,35,0.00,,---,0.00,VWS V14.01,2013-01-23 20:22:00,
2013-01-23 14:27:00,70.4,41.5,30.23,WSW,242,4.0,14.0,35,0.00,,---,0.00,VWS V14.01,2013-01-23 20:27:00,
2013-01-23 14:30:00,70.4,41.5,30.22,West,277,4.0,14.0,35,0.00,,---,0.00,VWS V14.01,2013-01-23 20:30:00,
2013-01-23 14:32:00,70.4,42.2,30.22,SSW,197,7.0,15.0,36,0.00,,---,0.00,VWS V14.01,2013-01-23 20:32:00,
2013-01-23 14:37:00,70.4,42.2,30.22,WSW,239,0.0,15.0,36,0.00,,---,0.00,VWS V14.01,2013-01-23 20:37:00,
2013-01-23 14:42:00,70.4,43.6,30.22,West,270,10.0,15.0,38,0.00,,---,0.00,VWS V14.01,2013-01-23 20:42:00,
2013-01-23 14:45:00,70.4,42.9,30.22,WSW,249,7.0,15.0,37,0.00,,---,0.00,VWS V14.01,2013-01-23 20:45:00,
2013-01-23 14:47:00,70.4,44.3,30.22,WSW,245,14.0,14.0,39,0.00,,---,0.00,VWS V14.01,2013-01-23 20:47:00,
2013-01-23 14:52:00,70.4,43.6,30.22,West,274,5.0,14.0,38,0.00,,---,0.00,VWS V14.01,2013-01-23 20:52:00,
2013-01-23 14:57:00,70.8,44.0,30.22,SW,223,0.0,14.0,38,0.00,,---,0.00,VWS V14.01,2013-01-23 20:57:00,
2013-01-23 15:00:00,70.9,45.4,30.22,SW,218,0.0,14.0,40,0.00,,---,0.00,VWS V14.01,2013-01-23 21:00:00,
2013-01-23 15:03:00,71.1,44.2,30.22,SW,224,3.0,12.0,38,0.00,,---,0.00,VWS V14.01,2013-01-23 21:03:00,
2013-01-23 15:08:00,71.3,45.1,30.22,WSW,242,3.0,12.0,39,0.00,,---,0.00,VWS V14.01,2013-01-23 21:08:00,
2013-01-23 15:13:00,70.9,44.7,30.22,West,281,7.0,12.0,39,0.00,,---,0.00,VWS V14.01,2013-01-23 21:13:00,
2013-01-23 15:15:00,70.9,46.0,30.22,NW,326,5.0,12.0,41,0.00,,---,0.00,VWS V14.01,2013-01-23 21:15:00,
2013-01-23 15:18:00,70.8,44.0,30.22,West,268,2.0,10.0,38,0.00,,---,0.00,VWS V14.01,2013-01-23 21:18:00,
2013-01-23 15:23:00,70.6,45.1,30.22,West,273,9.0,14.0,40,0.00,,---,0.00,VWS V14.01,2013-01-23 21:23:00,
2013-01-23 15:28:00,70.4,45.0,30.22,West,279,4.0,14.0,40,0.00,,---,0.00,VWS V14.01,2013-01-23 21:28:00,
2013-01-23 15:30:00,70.4,45.0,30.22,West,265,6.0,14.0,40,0.00,,---,0.00,VWS V14.01,2013-01-23 21:30:00,
2013-01-23 15:33:00,70.3,45.5,30.22,WSW,257,10.0,11.0,41,0.00,,---,0.00,VWS V14.01,2013-01-23 21:33:00,
2013-01-23 15:38:00,70.3,45.5,30.22,SW,234,3.0,11.0,41,0.00,,---,0.00,VWS V14.01,2013-01-23 21:38:00,
2013-01-23 15:43:00,70.6,46.4,30.22,SW,221,4.0,11.0,42,0.00,,---,0.00,VWS V14.01,2013-01-23 21:43:00,
2013-01-23 15:45:00,70.6,47.0,30.22,SW,220,0.0,11.0,43,0.00,,---,0.00,VWS V14.01,2013-01-23 21:45:00,
2013-01-23 15:48:00,70.6,47.0,30.22,SW,226,0.0,11.0,43,0.00,,---,0.00,VWS V14.01,2013-01-23 21:48:00,
2013-01-23 15:53:00,70.6,47.0,30.22,WSW,254,5.0,11.0,43,0.00,,---,0.00,VWS V14.01,2013-01-23 21:53:00,
2013-01-23 15:59:00,70.4,47.5,30.21,WSW,242,1.0,11.0,44,0.00,,---,0.00,VWS V14.01,2013-01-23 21:59:00,
2013-01-23 16:00:00,70.4,47.5,30.21,West,269,8.0,11.0,44,0.00,,---,0.00,VWS V14.01,2013-01-23 22:00:00,
2013-01-23 16:04:00,70.4,47.5,30.21,West,278,7.0,9.0,44,0.00,,---,0.00,VWS V14.01,2013-01-23 22:04:00,
2013-01-23 16:09:00,70.1,49.0,30.21,SW,231,0.0,13.0,47,0.00,,---,0.00,VWS V14.01,2013-01-23 22:09:00,
2013-01-23 16:14:00,70.3,48.6,30.21,West,279,6.0,13.0,46,0.00,,---,0.00,VWS V14.01,2013-01-23 22:14:00,
2013-01-23 16:15:00,70.3,48.6,30.21,WSW,243,8.0,13.0,46,0.00,,---,0.00,VWS V14.01,2013-01-23 22:15:00,
2013-01-23 16:19:00,70.3,49.1,30.21,WSW,247,7.0,8.0,47,0.00,,---,0.00,VWS V14.01,2013-01-23 22:19:00,
2013-01-23 16:24:00,70.1,49.0,30.21,WSW,258,9.0,10.0,47,0.00,,---,0.00,VWS V14.01,2013-01-23 22:24:00,
2013-01-23 16:29:00,69.8,49.2,30.21,SW,227,4.0,10.0,48,0.00,,---,0.00,VWS V14.01,2013-01-23 22:29:00,
2013-01-23 16:30:00,69.8,49.2,30.21,WSW,241,3.0,10.0,48,0.00,,---,0.00,VWS V14.01,2013-01-23 22:30:00,
2013-01-23 16:34:00,69.8,49.8,30.21,WSW,257,0.0,5.0,49,0.00,,---,0.00,VWS V14.01,2013-01-23 22:34:00,
2013-01-23 16:39:00,69.8,49.8,30.21,WSW,239,1.0,6.0,49,0.00,,---,0.00,VWS V14.01,2013-01-23 22:39:00,
2013-01-23 16:44:00,69.4,50.0,30.21,WSW,253,2.0,10.0,50,0.00,,---,0.00,VWS V14.01,2013-01-23 22:44:00,
2013-01-23 16:45:00,69.4,50.0,30.21,West,260,3.0,10.0,50,0.00,,---,0.00,VWS V14.01,2013-01-23 22:45:00,
2013-01-23 16:49:00,69.1,49.7,30.21,WSW,257,5.0,8.0,50,0.00,,---,0.00,VWS V14.01,2013-01-23 22:49:00,
2013-01-23 16:54:00,68.9,49.0,30.21,WSW,245,6.0,11.0,49,0.00,,---,0.00,VWS V14.01,2013-01-23 22:54:00,
2013-01-23 16:59:00,68.8,49.4,30.21,West,263,0.0,11.0,50,0.00,,---,0.00,VWS V14.01,2013-01-23 22:59:00,
2013-01-23 17:00:00,68.8,49.4,30.21,West,263,0.0,11.0,50,0.00,,---,0.00,VWS V14.01,2013-01-23 23:00:00,
2013-01-23 17:04:00,68.4,49.1,30.21,West,263,3.0,7.0,50,0.00,,---,0.00,VWS V14.01,2013-01-23 23:04:00,
2013-01-23 17:09:00,67.9,49.1,30.21,WSW,254,0.0,7.0,51,0.00,,---,0.00,VWS V14.01,2013-01-23 23:09:00,
2013-01-23 17:14:00,67.4,49.2,30.21,WSW,238,3.0,3.0,52,0.00,,---,0.00,VWS V14.01,2013-01-23 23:14:00,
2013-01-23 17:15:00,67.4,49.2,30.21,SW,235,0.0,7.0,52,0.00,,---,0.00,VWS V14.01,2013-01-23 23:15:00,
2013-01-23 17:20:00,66.9,48.7,30.21,WSW,249,4.0,7.0,52,0.00,,---,0.00,VWS V14.01,2013-01-23 23:20:00,
2013-01-23 17:25:00,66.6,49.0,30.21,SW,225,4.0,7.0,53,0.00,,---,0.00,VWS V14.01,2013-01-23 23:25:00,
2013-01-23 17:30:00,66.1,48.5,30.22,West,259,0.0,2.0,53,0.00,,---,0.00,VWS V14.01,2013-01-23 23:30:00,
2013-01-23 17:35:00,66.0,48.4,30.22,West,264,0.0,5.0,53,0.00,,---,0.00,VWS V14.01,2013-01-23 23:35:00,
2013-01-23 17:40:00,65.5,48.4,30.22,WSW,246,1.0,5.0,54,0.00,,---,0.00,VWS V14.01,2013-01-23 23:40:00,
2013-01-23 17:45:00,65.2,48.6,30.22,SW,225,0.0,4.0,55,0.00,,---,0.00,VWS V14.01,2013-01-23 23:45:00,
2013-01-23 17:50:00,64.7,48.7,30.22,WSW,242,0.0,4.0,56,0.00,,---,0.00,VWS V14.01,2013-01-23 23:50:00,
2013-01-23 17:55:00,64.5,49.0,30.22,WSW,246,0.0,6.0,57,0.00,,---,0.00,VWS V14.01,2013-01-23 23:55:00,
2013-01-23 18:00:00,64.2,48.7,30.22,WSW,250,0.0,0.0,57,0.00,,---,0.00,VWS V14.01,2013-01-24 00:00:00,
2013-01-23 18:05:00,63.9,48.8,30.22,WSW,242,0.0,0.0,58,0.00,,---,0.00,VWS V14.01,2013-01-24 00:05:00,
2013-01-23 18:10:00,63.4,48.8,30.22,SW,221,3.0,3.0,59,0.00,,---,0.00,VWS V14.01,2013-01-24 00:10:00,
2013-01-23 18:15:00,63.1,49.0,30.22,SW,221,0.0,0.0,60,0.00,,---,0.00,VWS V14.01,2013-01-24 00:15:00,
2013-01-23 18:21:00,62.6,49.0,30.22,SW,221,0.0,0.0,61,0.00,,---,0.00,VWS V14.01,2013-01-24 00:21:00,
2013-01-23 18:26:00,62.1,48.9,30.22,SW,215,0.0,4.0,62,0.00,,---,0.00,VWS V14.01,2013-01-24 00:26:00,
2013-01-23 18:30:00,62.1,49.4,30.22,SW,235,0.0,4.0,63,0.00,,---,0.00,VWS V14.01,2013-01-24 00:30:00,
2013-01-23 18:31:00,62.0,49.3,30.22,SSW,213,1.0,1.0,63,0.00,,---,0.00,VWS V14.01,2013-01-24 00:31:00,
2013-01-23 18:36:00,61.8,49.9,30.22,SW,227,0.0,5.0,65,0.00,,---,0.00,VWS V14.01,2013-01-24 00:36:00,
2013-01-23 18:41:00,61.6,49.7,30.22,SW,229,0.0,5.0,65,0.00,,---,0.00,VWS V14.01,2013-01-24 00:41:00,
2013-01-23 18:45:00,61.5,50.0,30.22,SW,214,1.0,5.0,66,0.00,,---,0.00,VWS V14.01,2013-01-24 00:45:00,
2013-01-23 18:46:00,61.3,49.9,30.22,SSW,213,0.0,1.0,66,0.00,,---,0.00,VWS V14.01,2013-01-24 00:46:00,
2013-01-23 18:51:00,61.3,50.3,30.22,SSW,212,2.0,6.0,67,0.00,,---,0.00,VWS V14.01,2013-01-24 00:51:00,
2013-01-23 18:56:00,61.2,50.2,30.22,SW,217,0.0,6.0,67,0.00,,---,0.00,VWS V14.01,2013-01-24 00:56:00,
2013-01-23 19:00:00,61.2,50.2,30.22,SW,225,0.0,6.0,67,0.00,,---,0.00,VWS V14.01,2013-01-24 01:00:00,
2013-01-23 19:01:00,61.0,50.4,30.22,SW,219,0.0,1.0,68,0.00,,---,0.00,VWS V14.01,2013-01-24 01:01:00,
2013-01-23 19:06:00,61.0,50.4,30.22,SSW,212,1.0,5.0,68,0.00,,---,0.00,VWS V14.01,2013-01-24 01:06:00,
2013-01-23 19:11:00,60.9,50.3,30.22,SW,221,0.0,5.0,68,0.00,,---,0.00,VWS V14.01,2013-01-24 01:11:00,
2013-01-23 19:15:00,60.7,50.5,30.22,SW,221,0.0,5.0,69,0.00,,---,0.00,VWS V14.01,2013-01-24 01:15:00,
2013-01-23 19:16:00,60.7,50.5,30.22,SW,223,0.0,2.0,69,0.00,,---,0.00,VWS V14.01,2013-01-24 01:16:00,
2013-01-23 19:22:00,60.5,50.7,30.22,SW,221,0.0,5.0,70,0.00,,---,0.00,VWS V14.01,2013-01-24 01:22:00,
2013-01-23 19:27:00,60.4,50.6,30.22,SW,225,0.0,5.0,70,0.00,,---,0.00,VWS V14.01,2013-01-24 01:27:00,
2013-01-23 19:30:00,60.2,50.4,30.23,SW,225,0.0,5.0,70,0.00,,---,0.00,VWS V14.01,2013-01-24 01:30:00,
2013-01-23 19:32:00,60.1,50.7,30.23,SW,225,0.0,0.0,71,0.00,,---,0.00,VWS V14.01,2013-01-24 01:32:00,
2013-01-23 19:37:00,59.9,50.5,30.23,SW,225,0.0,1.0,71,0.00,,---,0.00,VWS V14.01,2013-01-24 01:37:00,
2013-01-23 19:42:00,59.8,50.4,30.23,SW,225,0.0,1.0,71,0.00,,---,0.00,VWS V14.01,2013-01-24 01:42:00,
2013-01-23 19:45:00,59.6,50.6,30.23,SW,225,0.0,1.0,72,0.00,,---,0.00,VWS V14.01,2013-01-24 01:45:00,
2013-01-23 19:47:00,59.5,50.5,30.23,SW,225,0.0,0.0,72,0.00,,---,0.00,VWS V14.01,2013-01-24 01:47:00,
2013-01-23 19:52:00,59.2,50.6,30.23,SW,225,0.0,0.0,73,0.00,,---,0.00,VWS V14.01,2013-01-24 01:52:00,
2013-01-23 19:57:00,58.9,50.3,30.23,SSW,208,0.0,1.0,73,0.00,,---,0.00,VWS V14.01,2013-01-24 01:57:00,
2013-01-23 20:00:00,58.9,50.6,30.23,SSW,211,0.0,4.0,74,0.00,,---,0.00,VWS V14.01,2013-01-24 02:00:00,
2013-01-23 20:02:00,58.7,50.5,30.23,SSW,213,2.0,3.0,74,0.00,,---,0.00,VWS V14.01,2013-01-24 02:02:00,
2013-01-23 20:07:00,58.6,50.3,30.23,SSW,209,0.0,3.0,74,0.00,,---,0.00,VWS V14.01,2013-01-24 02:07:00,
2013-01-23 20:12:00,58.4,50.5,30.23,SSW,202,1.0,4.0,75,0.00,,---,0.00,VWS V14.01,2013-01-24 02:12:00,
2013-01-23 20:15:00,58.4,50.5,30.23,SSW,204,0.0,4.0,75,0.00,,---,0.00,VWS V14.01,2013-01-24 02:15:00,
2013-01-23 20:17:00,58.4,50.9,30.23,SSW,204,0.0,0.0,76,0.00,,---,0.00,VWS V14.01,2013-01-24 02:17:00,
2013-01-23 20:22:00,58.3,50.8,30.23,SSW,204,0.0,1.0,76,0.00,,---,0.00,VWS V14.01,2013-01-24 02:22:00,
2013-01-23 20:28:00,58.3,50.8,30.23,SSW,213,0.0,1.0,76,0.00,,---,0.00,VWS V14.01,2013-01-24 02:28:00,
2013-01-23 20:30:00,58.1,50.6,30.23,SSW,213,2.0,3.0,76,0.00,,---,0.00,VWS V14.01,2013-01-24 02:30:00,
2013-01-23 20:33:00,58.1,50.9,30.23,SSW,213,0.0,3.0,77,0.00,,---,0.00,VWS V14.01,2013-01-24 02:33:00,
2013-01-23 20:38:00,58.0,50.8,30.23,SSW,209,0.0,4.0,77,0.00,,---,0.00,VWS V14.01,2013-01-24 02:38:00,
2013-01-23 20:43:00,57.8,50.7,30.23,SSW,211,0.0,4.0,77,0.00,,---,0.00,VWS V14.01,2013-01-24 02:43:00,
2013-01-23 20:45:00,57.8,51.0,30.23,SW,219,2.0,4.0,78,0.00,,---,0.00,VWS V14.01,2013-01-24 02:45:00,
2013-01-23 20:48:00,57.8,51.0,30.23,SSW,208,0.0,5.0,78,0.00,,---,0.00,VWS V14.01,2013-01-24 02:48:00,
2013-01-23 20:53:00,57.6,50.8,30.23,SSW,210,0.0,5.0,78,0.00,,---,0.00,VWS V14.01,2013-01-24 02:53:00,
2013-01-23 20:58:00,57.5,50.7,30.23,SW,217,0.0,5.0,78,0.00,,---,0.00,VWS V14.01,2013-01-24 02:58:00,
2013-01-23 21:00:00,57.5,50.7,30.23,SW,215,0.0,5.0,78,0.00,,---,0.00,VWS V14.01,2013-01-24 03:00:00,
2013-01-23 21:03:00,57.5,51.0,30.23,SW,225,0.0,3.0,79,0.00,,---,0.00,VWS V14.01,2013-01-24 03:03:00,
2013-01-23 21:08:00,57.5,50.7,30.23,SSW,195,0.0,3.0,78,0.00,,---,0.00,VWS V14.01,2013-01-24 03:08:00,
2013-01-23 21:14:00,57.3,50.8,30.23,SSW,195,0.0,3.0,79,0.00,,---,0.00,VWS V14.01,2013-01-24 03:14:00,
2013-01-23 21:15:00,57.3,50.8,30.23,SSW,195,0.0,3.0,79,0.00,,---,0.00,VWS V14.01,2013-01-24 03:15:00,
2013-01-23 21:19:00,57.3,50.8,30.23,SSW,195,0.0,0.0,79,0.00,,---,0.00,VWS V14.01,2013-01-24 03:19:00,
2013-01-23 21:24:00,56.9,50.5,30.23,SSW,195,0.0,0.0,79,0.00,,---,0.00,VWS V14.01,2013-01-24 03:24:00,
2013-01-23 21:29:00,56.6,50.5,30.23,SSW,195,0.0,1.0,80,0.00,,---,0.00,VWS V14.01,2013-01-24 03:29:00,
2013-01-23 21:30:00,56.5,50.4,30.23,SSW,195,0.0,1.0,80,0.00,,---,0.00,VWS V14.01,2013-01-24 03:30:00,
2013-01-23 21:34:00,56.6,50.5,30.23,SSW,195,0.0,0.0,80,0.00,,---,0.00,VWS V14.01,2013-01-24 03:34:00,
2013-01-23 21:39:00,56.3,50.2,30.23,SSW,195,0.0,0.0,80,0.00,,---,0.00,VWS V14.01,2013-01-24 03:39:00,
2013-01-23 21:44:00,56.0,49.9,30.23,SSW,195,0.0,0.0,80,0.00,,---,0.00,VWS V14.01,2013-01-24 03:44:00,
2013-01-23 21:45:00,56.0,49.9,30.23,SSW,195,0.0,0.0,80,0.00,,---,0.00,VWS V14.01,2013-01-24 03:45:00,
2013-01-23 21:49:00,55.6,49.9,30.23,SSW,195,0.0,3.0,81,0.00,,---,0.00,VWS V14.01,2013-01-24 03:49:00,
2013-01-23 21:54:00,55.4,50.0,30.23,SSW,195,0.0,3.0,82,0.00,,---,0.00,VWS V14.01,2013-01-24 03:54:00,
2013-01-23 21:59:00,55.1,50.0,30.23,SSW,195,0.0,3.0,83,0.00,,---,0.00,VWS V14.01,2013-01-24 03:59:00,
2013-01-23 22:00:00,55.1,50.0,30.23,SSW,195,0.0,3.0,83,0.00,,---,0.00,VWS V14.01,2013-01-24 04:00:00,
2013-01-23 22:04:00,55.0,49.9,30.23,SSW,195,0.0,1.0,83,0.00,,---,0.00,VWS V14.01,2013-01-24 04:04:00,
2013-01-23 22:09:00,55.0,50.3,30.23,SSW,195,0.0,3.0,84,0.00,,---,0.00,VWS V14.01,2013-01-24 04:09:00,
2013-01-23 22:14:00,54.7,49.7,30.23,SSW,211,4.0,5.0,83,0.00,,---,0.00,VWS V14.01,2013-01-24 04:14:00,
2013-01-23 22:15:00,54.7,49.7,30.23,SSW,211,4.0,5.0,83,0.00,,---,0.00,VWS V14.01,2013-01-24 04:15:00,
2013-01-23 22:19:00,54.2,49.2,30.23,SSW,210,0.0,4.0,83,0.00,,---,0.00,VWS V14.01,2013-01-24 04:19:00,
2013-01-23 22:24:00,53.8,49.1,30.23,SSW,211,0.0,4.0,84,0.00,,---,0.00,VWS V14.01,2013-01-24 04:24:00,
2013-01-23 22:29:00,53.5,48.8,30.23,SSW,211,0.0,0.0,84,0.00,,---,0.00,VWS V14.01,2013-01-24 04:29:00,
2013-01-23 22:30:00,53.5,48.8,30.23,SSW,210,0.0,4.0,84,0.00,,---,0.00,VWS V14.01,2013-01-24 04:30:00,
2013-01-23 22:34:00,53.3,48.9,30.23,SSW,211,0.0,0.0,85,0.00,,---,0.00,VWS V14.01,2013-01-24 04:34:00,
2013-01-23 22:39:00,53.1,48.7,30.23,SSW,211,0.0,4.0,85,0.00,,---,0.00,VWS V14.01,2013-01-24 04:39:00,
2013-01-23 22:44:00,52.8,48.4,30.23,SSW,211,0.0,0.0,85,0.00,,---,0.00,VWS V14.01,2013-01-24 04:44:00,
2013-01-23 22:45:00,52.8,48.4,30.23,SSW,211,0.0,4.0,85,0.00,,---,0.00,VWS V14.01,2013-01-24 04:45:00,
2013-01-23 22:50:00,52.3,47.9,30.23,SSW,211,0.0,0.0,85,0.00,,---,0.00,VWS V14.01,2013-01-24 04:50:00,
2013-01-23 22:55:00,52.0,47.6,30.23,SSW,210,0.0,0.0,85,0.00,,---,0.00,VWS V14.01,2013-01-24 04:55:00,
2013-01-23 23:00:00,51.7,47.7,30.23,SSW,211,0.0,0.0,86,0.00,,---,0.00,VWS V14.01,2013-01-24 05:00:00,
2013-01-23 23:01:00,51.7,47.7,30.23,SSW,211,0.0,0.0,86,0.00,,---,0.00,VWS V14.01,2013-01-24 05:01:00,
2013-01-23 23:03:00,51.7,47.7,30.23,SSW,211,0.0,0.0,86,0.00,,---,0.00,VWS V14.01,2013-01-24 05:03:00,
2013-01-23 23:08:00,51.4,47.4,30.23,SSW,210,0.0,0.0,86,0.00,,---,0.00,VWS V14.01,2013-01-24 05:08:00,
2013-01-23 23:13:00,51.1,47.1,30.23,SSW,211,0.0,0.0,86,0.00,,---,0.00,VWS V14.01,2013-01-24 05:13:00,
2013-01-23 23:15:00,51.0,47.0,30.23,SSW,211,0.0,0.0,86,0.00,,---,0.00,VWS V14.01,2013-01-24 05:15:00,
2013-01-23 23:18:00,51.0,47.3,30.23,SSW,211,0.0,3.0,87,0.00,,---,0.00,VWS V14.01,2013-01-24 05:18:00,
2013-01-23 23:23:00,50.8,47.1,30.23,SSW,211,0.0,3.0,87,0.00,,---,0.00,VWS V14.01,2013-01-24 05:23:00,
2013-01-23 23:28:00,50.7,47.0,30.23,SSW,211,0.0,3.0,87,0.00,,---,0.00,VWS V14.01,2013-01-24 05:28:00,
2013-01-23 23:30:00,50.5,46.8,30.23,SSW,210,1.0,3.0,87,0.00,,---,0.00,VWS V14.01,2013-01-24 05:30:00,
2013-01-23 23:33:00,50.5,47.1,30.23,SSW,211,2.0,4.0,88,0.00,,---,0.00,VWS V14.01,2013-01-24 05:33:00,
2013-01-23 23:39:00,50.7,47.6,30.23,SSW,211,0.0,4.0,89,0.00,,---,0.00,VWS V14.01,2013-01-24 05:39:00,
2013-01-23 23:44:00,50.8,47.7,30.22,SSW,194,0.0,4.0,89,0.00,,---,0.00,VWS V14.01,2013-01-24 05:44:00,
2013-01-23 23:45:00,50.8,47.7,30.22,SSW,194,0.0,4.0,89,0.00,,---,0.00,VWS V14.01,2013-01-24 05:45:00,
2013-01-23 23:49:00,51.0,48.2,30.22,SSW,194,0.0,0.0,90,0.00,,---,0.00,VWS V14.01,2013-01-24 05:49:00,
2013-01-23 23:54:00,51.0,48.2,30.22,SSW,194,0.0,0.0,90,0.00,,---,0.00,VWS V14.01,2013-01-24 05:54:00,
2013-01-23 23:59:00,50.7,47.6,30.23,SSW,194,0.0,0.0,89,0.00,,---,0.00,VWS V14.01,2013-01-24 05:59:00,